sensor_id;sensor_type;location;lat;lon;timestamp;pressure;altitude;pressure_sealevel;temperature;humidity
13387;BME280;6763;48.524;9.044;2023-01-15T00:00:09;96649.03;;;14.75;53.28
13387;BME280;6763;48.524;9.044;2023-01-15T00:02:35;96653.38;;;14.75;53.17
13387;BME280;6763;48.524;9.044;2023-01-15T00:05:00;96649.47;;;14.83;52.84
13387;BME280;6763;48.524;9.044;2023-01-15T00:07:27;96645.00;;;14.85;52.86
13387;BME280;6763;48.524;9.044;2023-01-15T00:09:53;96646.59;;;14.88;52.44
13387;BME280;6763;48.524;9.044;2023-01-15T00:12:18;96642.25;;;14.88;52.35
13387;BME280;6763;48.524;9.044;2023-01-15T00:14:44;96631.47;;;14.95;52.03
13387;BME280;6763;48.524;9.044;2023-01-15T00:17:09;96626.84;;;15.00;52.24
13387;BME280;6763;48.524;9.044;2023-01-15T00:19:35;96624.00;;;15.04;51.79
13387;BME280;6763;48.524;9.044;2023-01-15T00:22:00;96629.03;;;15.07;51.63
13387;BME280;6763;48.524;9.044;2023-01-15T00:24:26;96612.16;;;15.14;51.06
13387;BME280;6763;48.524;9.044;2023-01-15T00:27:09;96606.78;;;15.17;50.68
13387;BME280;6763;48.524;9.044;2023-01-15T00:29:53;96604.81;;;15.21;50.65
13387;BME280;6763;48.524;9.044;2023-01-15T00:32:19;96603.53;;;15.28;50.08
13387;BME280;6763;48.524;9.044;2023-01-15T00:34:44;96595.22;;;15.37;49.60
13387;BME280;6763;48.524;9.044;2023-01-15T00:37:09;96599.69;;;15.50;49.20
13387;BME280;6763;48.524;9.044;2023-01-15T00:39:35;96594.09;;;15.57;48.67
13387;BME280;6763;48.524;9.044;2023-01-15T00:42:00;96593.03;;;15.75;47.99
13387;BME280;6763;48.524;9.044;2023-01-15T00:44:26;96595.41;;;15.79;48.02
13387;BME280;6763;48.524;9.044;2023-01-15T00:46:51;96580.22;;;15.86;47.79
13387;BME280;6763;48.524;9.044;2023-01-15T00:49:17;96588.91;;;16.00;47.18
13387;BME280;6763;48.524;9.044;2023-01-15T00:51:42;96584.00;;;16.10;46.90
13387;BME280;6763;48.524;9.044;2023-01-15T00:54:08;96578.50;;;16.14;46.82
13387;BME280;6763;48.524;9.044;2023-01-15T00:56:33;96574.31;;;16.12;47.07
13387;BME280;6763;48.524;9.044;2023-01-15T00:59:01;96571.66;;;15.98;47.22
13387;BME280;6763;48.524;9.044;2023-01-15T01:01:26;96565.50;;;15.85;48.15
13387;BME280;6763;48.524;9.044;2023-01-15T01:03:52;96570.84;;;15.54;48.95
13387;BME280;6763;48.524;9.044;2023-01-15T01:06:19;96564.19;;;15.48;49.65
13387;BME280;6763;48.524;9.044;2023-01-15T01:08:45;96564.19;;;15.32;50.18
13387;BME280;6763;48.524;9.044;2023-01-15T01:11:13;96563.47;;;15.15;50.73
13387;BME280;6763;48.524;9.044;2023-01-15T01:13:39;96575.09;;;15.09;51.59
13387;BME280;6763;48.524;9.044;2023-01-15T01:16:20;96563.06;;;15.07;51.65
13387;BME280;6763;48.524;9.044;2023-01-15T01:18:46;96556.06;;;15.07;51.68
13387;BME280;6763;48.524;9.044;2023-01-15T01:21:11;96559.69;;;15.05;52.03
13387;BME280;6763;48.524;9.044;2023-01-15T01:23:36;96552.06;;;15.02;52.34
13387;BME280;6763;48.524;9.044;2023-01-15T01:26:01;96553.56;;;15.06;52.45
13387;BME280;6763;48.524;9.044;2023-01-15T01:28:27;96554.88;;;15.13;52.60
13387;BME280;6763;48.524;9.044;2023-01-15T01:30:52;96539.50;;;15.08;52.24
13387;BME280;6763;48.524;9.044;2023-01-15T01:33:17;96541.38;;;14.90;53.02
13387;BME280;6763;48.524;9.044;2023-01-15T01:35:50;96529.09;;;14.93;53.06
13387;BME280;6763;48.524;9.044;2023-01-15T01:38:15;96549.78;;;14.96;53.16
13387;BME280;6763;48.524;9.044;2023-01-15T01:40:41;96528.19;;;15.09;52.83
13387;BME280;6763;48.524;9.044;2023-01-15T01:43:26;96530.50;;;15.14;52.63
13387;BME280;6763;48.524;9.044;2023-01-15T01:45:52;96520.00;;;15.15;52.84
13387;BME280;6763;48.524;9.044;2023-01-15T01:48:20;96521.13;;;15.25;52.63
13387;BME280;6763;48.524;9.044;2023-01-15T01:50:49;96526.19;;;15.28;52.67
13387;BME280;6763;48.524;9.044;2023-01-15T01:53:23;96513.72;;;15.33;52.60
13387;BME280;6763;48.524;9.044;2023-01-15T01:55:50;96509.94;;;15.39;52.11
13387;BME280;6763;48.524;9.044;2023-01-15T01:58:17;96520.09;;;15.43;51.97
13387;BME280;6763;48.524;9.044;2023-01-15T02:00:45;96512.50;;;15.55;51.77
13387;BME280;6763;48.524;9.044;2023-01-15T02:03:12;96509.38;;;15.64;51.23
13387;BME280;6763;48.524;9.044;2023-01-15T02:05:42;96493.34;;;15.70;51.08
13387;BME280;6763;48.524;9.044;2023-01-15T02:08:10;96485.84;;;15.79;50.95
13387;BME280;6763;48.524;9.044;2023-01-15T02:10:36;96493.44;;;15.82;50.44
13387;BME280;6763;48.524;9.044;2023-01-15T02:15:37;96478.28;;;15.89;50.34
13387;BME280;6763;48.524;9.044;2023-01-15T02:20:38;96467.47;;;15.95;50.16
13387;BME280;6763;48.524;9.044;2023-01-15T02:28:41;96457.84;;;15.95;49.94
13387;BME280;6763;48.524;9.044;2023-01-15T02:31:20;96448.81;;;16.01;49.99
13387;BME280;6763;48.524;9.044;2023-01-15T02:34:09;96446.41;;;15.98;50.14
13387;BME280;6763;48.524;9.044;2023-01-15T02:36:49;96443.44;;;15.90;50.37
13387;BME280;6763;48.524;9.044;2023-01-15T02:39:16;96445.22;;;15.89;50.50
13387;BME280;6763;48.524;9.044;2023-01-15T02:41:48;96452.56;;;15.97;50.15
13387;BME280;6763;48.524;9.044;2023-01-15T02:44:18;96453.41;;;15.97;50.28
13387;BME280;6763;48.524;9.044;2023-01-15T02:46:45;96447.78;;;16.03;50.27
13387;BME280;6763;48.524;9.044;2023-01-15T02:49:14;96455.06;;;16.12;50.16
13387;BME280;6763;48.524;9.044;2023-01-15T02:51:45;96448.53;;;16.20;49.77
13387;BME280;6763;48.524;9.044;2023-01-15T02:54:13;96444.81;;;16.24;49.79
13387;BME280;6763;48.524;9.044;2023-01-15T02:56:43;96443.69;;;16.28;49.72
13387;BME280;6763;48.524;9.044;2023-01-15T02:59:14;96440.16;;;16.29;49.81
13387;BME280;6763;48.524;9.044;2023-01-15T03:01:58;96425.28;;;16.29;49.60
13387;BME280;6763;48.524;9.044;2023-01-15T03:04:32;96437.25;;;16.19;49.90
13387;BME280;6763;48.524;9.044;2023-01-15T03:09:40;96428.56;;;16.33;49.67
13387;BME280;6763;48.524;9.044;2023-01-15T03:15:07;96426.59;;;16.36;49.54
13387;BME280;6763;48.524;9.044;2023-01-15T03:17:52;96420.63;;;16.34;49.69
13387;BME280;6763;48.524;9.044;2023-01-15T03:20:27;96420.19;;;16.13;50.02
13387;BME280;6763;48.524;9.044;2023-01-15T03:22:58;96423.94;;;16.09;50.52
13387;BME280;6763;48.524;9.044;2023-01-15T03:25:36;96429.53;;;16.03;50.79
13387;BME280;6763;48.524;9.044;2023-01-15T03:28:04;96432.50;;;16.11;50.64
13387;BME280;6763;48.524;9.044;2023-01-15T03:30:32;96430.38;;;16.18;50.36
13387;BME280;6763;48.524;9.044;2023-01-15T03:32:58;96421.94;;;16.27;50.52
13387;BME280;6763;48.524;9.044;2023-01-15T03:35:43;96411.50;;;16.27;50.36
13387;BME280;6763;48.524;9.044;2023-01-15T03:38:11;96416.34;;;16.19;50.35
13387;BME280;6763;48.524;9.044;2023-01-15T03:40:42;96429.34;;;16.21;50.84
13387;BME280;6763;48.524;9.044;2023-01-15T03:43:12;96429.69;;;16.29;50.46
13387;BME280;6763;48.524;9.044;2023-01-15T03:46:01;96431.16;;;16.33;50.81
13387;BME280;6763;48.524;9.044;2023-01-15T03:48:38;96414.47;;;16.35;50.65
13387;BME280;6763;48.524;9.044;2023-01-15T03:51:15;96432.97;;;16.18;51.36
13387;BME280;6763;48.524;9.044;2023-01-15T03:54:10;96434.38;;;16.09;51.96
13387;BME280;6763;48.524;9.044;2023-01-15T03:56:48;96428.53;;;15.92;52.88
13387;BME280;6763;48.524;9.044;2023-01-15T03:59:48;96423.97;;;15.81;53.28
13387;BME280;6763;48.524;9.044;2023-01-15T04:02:17;96425.16;;;15.76;53.89
13387;BME280;6763;48.524;9.044;2023-01-15T04:04:45;96420.78;;;15.76;53.44
13387;BME280;6763;48.524;9.044;2023-01-15T04:07:11;96421.63;;;15.77;53.87
13387;BME280;6763;48.524;9.044;2023-01-15T04:09:38;96418.75;;;15.81;53.43
13387;BME280;6763;48.524;9.044;2023-01-15T04:12:05;96427.97;;;15.87;53.44
13387;BME280;6763;48.524;9.044;2023-01-15T04:14:30;96419.13;;;15.89;53.36
13387;BME280;6763;48.524;9.044;2023-01-15T04:16:56;96427.22;;;15.99;53.24
13387;BME280;6763;48.524;9.044;2023-01-15T04:19:22;96414.91;;;16.01;53.05
13387;BME280;6763;48.524;9.044;2023-01-15T04:21:47;96412.75;;;16.07;53.01
13387;BME280;6763;48.524;9.044;2023-01-15T04:24:12;96403.78;;;16.11;52.93
13387;BME280;6763;48.524;9.044;2023-01-15T04:26:37;96393.75;;;16.05;52.72
13387;BME280;6763;48.524;9.044;2023-01-15T04:29:03;96378.09;;;16.05;52.81
13387;BME280;6763;48.524;9.044;2023-01-15T04:31:28;96397.84;;;16.09;52.70
13387;BME280;6763;48.524;9.044;2023-01-15T04:33:56;96398.28;;;16.16;52.44
13387;BME280;6763;48.524;9.044;2023-01-15T04:36:21;96398.94;;;16.20;51.98
13387;BME280;6763;48.524;9.044;2023-01-15T04:38:47;96405.38;;;16.14;52.20
13387;BME280;6763;48.524;9.044;2023-01-15T04:41:12;96396.50;;;16.17;52.25
13387;BME280;6763;48.524;9.044;2023-01-15T04:43:57;96391.75;;;16.23;52.02
13387;BME280;6763;48.524;9.044;2023-01-15T04:49:03;96392.59;;;16.24;51.63
13387;BME280;6763;48.524;9.044;2023-01-15T04:51:28;96390.19;;;16.21;51.60
13387;BME280;6763;48.524;9.044;2023-01-15T04:53:54;96383.50;;;16.29;51.48
13387;BME280;6763;48.524;9.044;2023-01-15T04:56:19;96375.28;;;16.35;51.02
13387;BME280;6763;48.524;9.044;2023-01-15T04:58:45;96390.59;;;16.27;51.39
13387;BME280;6763;48.524;9.044;2023-01-15T05:01:12;96381.56;;;16.19;51.52
13387;BME280;6763;48.524;9.044;2023-01-15T05:03:38;96374.50;;;16.21;51.55
13387;BME280;6763;48.524;9.044;2023-01-15T05:06:04;96366.03;;;16.17;51.70
13387;BME280;6763;48.524;9.044;2023-01-15T05:08:30;96382.00;;;16.12;51.40
13387;BME280;6763;48.524;9.044;2023-01-15T05:10:55;96372.75;;;16.21;51.39
13387;BME280;6763;48.524;9.044;2023-01-15T05:13:21;96378.50;;;16.26;51.25
13387;BME280;6763;48.524;9.044;2023-01-15T05:15:46;96382.03;;;16.25;51.12
13387;BME280;6763;48.524;9.044;2023-01-15T05:18:13;96382.69;;;16.29;50.90
13387;BME280;6763;48.524;9.044;2023-01-15T05:20:42;96376.16;;;16.36;50.74
13387;BME280;6763;48.524;9.044;2023-01-15T05:23:08;96368.13;;;16.39;50.64
13387;BME280;6763;48.524;9.044;2023-01-15T05:25:37;96368.66;;;16.44;50.54
13387;BME280;6763;48.524;9.044;2023-01-15T05:28:02;96371.09;;;16.47;50.37
13387;BME280;6763;48.524;9.044;2023-01-15T05:30:28;96371.53;;;16.53;50.23
13387;BME280;6763;48.524;9.044;2023-01-15T05:32:53;96373.31;;;16.53;50.23
13387;BME280;6763;48.524;9.044;2023-01-15T05:35:18;96381.06;;;16.54;50.29
13387;BME280;6763;48.524;9.044;2023-01-15T05:37:44;96380.09;;;16.55;50.11
13387;BME280;6763;48.524;9.044;2023-01-15T05:40:10;96379.91;;;16.58;50.04
13387;BME280;6763;48.524;9.044;2023-01-15T05:42:35;96386.19;;;16.56;50.20
13387;BME280;6763;48.524;9.044;2023-01-15T05:45:00;96388.97;;;16.53;50.19
13387;BME280;6763;48.524;9.044;2023-01-15T05:47:26;96383.19;;;16.48;50.37
13387;BME280;6763;48.524;9.044;2023-01-15T05:49:51;96384.59;;;16.53;50.42
13387;BME280;6763;48.524;9.044;2023-01-15T05:52:16;96378.44;;;16.40;50.72
13387;BME280;6763;48.524;9.044;2023-01-15T05:54:42;96385.78;;;16.48;51.03
13387;BME280;6763;48.524;9.044;2023-01-15T05:57:09;96393.75;;;16.46;51.19
13387;BME280;6763;48.524;9.044;2023-01-15T05:59:37;96375.69;;;16.29;51.72
13387;BME280;6763;48.524;9.044;2023-01-15T06:02:03;96382.06;;;16.11;52.22
13387;BME280;6763;48.524;9.044;2023-01-15T06:04:28;96391.50;;;15.99;53.01
13387;BME280;6763;48.524;9.044;2023-01-15T06:06:54;96398.69;;;16.10;52.81
13387;BME280;6763;48.524;9.044;2023-01-15T06:09:20;96421.22;;;16.11;52.82
13387;BME280;6763;48.524;9.044;2023-01-15T06:11:47;96458.41;;;16.00;52.21
13387;BME280;6763;48.524;9.044;2023-01-15T06:14:12;96428.44;;;15.79;50.25
13387;BME280;6763;48.524;9.044;2023-01-15T06:16:38;96438.94;;;15.49;50.74
13387;BME280;6763;48.524;9.044;2023-01-15T06:19:05;96417.44;;;15.16;51.23
13387;BME280;6763;48.524;9.044;2023-01-15T06:21:32;96471.47;;;14.83;52.09
13387;BME280;6763;48.524;9.044;2023-01-15T06:23:58;96463.59;;;14.53;52.97
13387;BME280;6763;48.524;9.044;2023-01-15T06:26:24;96437.38;;;14.25;52.79
13387;BME280;6763;48.524;9.044;2023-01-15T06:28:50;96502.91;;;14.00;53.52
13387;BME280;6763;48.524;9.044;2023-01-15T06:31:18;96484.06;;;13.80;54.27
13387;BME280;6763;48.524;9.044;2023-01-15T06:33:44;96473.69;;;13.62;55.02
13387;BME280;6763;48.524;9.044;2023-01-15T06:36:12;96482.13;;;13.50;54.60
13387;BME280;6763;48.524;9.044;2023-01-15T06:38:38;96480.50;;;13.31;55.20
13387;BME280;6763;48.524;9.044;2023-01-15T06:41:06;96484.47;;;13.21;56.10
13387;BME280;6763;48.524;9.044;2023-01-15T06:43:54;96511.06;;;13.09;56.46
13387;BME280;6763;48.524;9.044;2023-01-15T06:46:44;96513.16;;;13.00;56.22
13387;BME280;6763;48.524;9.044;2023-01-15T06:49:29;96500.69;;;12.90;56.78
13387;BME280;6763;48.524;9.044;2023-01-15T06:51:55;96520.72;;;12.88;56.92
13387;BME280;6763;48.524;9.044;2023-01-15T06:54:20;96512.31;;;12.83;57.11
13387;BME280;6763;48.524;9.044;2023-01-15T06:56:45;96547.94;;;12.79;57.02
13387;BME280;6763;48.524;9.044;2023-01-15T06:59:11;96544.69;;;12.76;57.34
13387;BME280;6763;48.524;9.044;2023-01-15T07:01:36;96544.81;;;12.73;57.53
13387;BME280;6763;48.524;9.044;2023-01-15T07:04:01;96558.91;;;12.67;57.41
13387;BME280;6763;48.524;9.044;2023-01-15T07:06:27;96555.69;;;12.62;57.22
13387;BME280;6763;48.524;9.044;2023-01-15T07:08:52;96580.25;;;12.55;57.69
13387;BME280;6763;48.524;9.044;2023-01-15T07:11:17;96572.75;;;12.49;57.63
13387;BME280;6763;48.524;9.044;2023-01-15T07:13:43;96580.75;;;12.44;57.27
13387;BME280;6763;48.524;9.044;2023-01-15T07:16:08;96596.50;;;12.40;57.47
13387;BME280;6763;48.524;9.044;2023-01-15T07:18:51;96607.16;;;12.34;57.48
13387;BME280;6763;48.524;9.044;2023-01-15T07:21:16;96598.75;;;12.29;57.65
13387;BME280;6763;48.524;9.044;2023-01-15T07:23:42;96607.56;;;12.25;57.59
13387;BME280;6763;48.524;9.044;2023-01-15T07:26:07;96621.50;;;12.22;57.89
13387;BME280;6763;48.524;9.044;2023-01-15T07:28:32;96614.81;;;12.17;57.61
13387;BME280;6763;48.524;9.044;2023-01-15T07:30:58;96634.13;;;12.11;57.61
13387;BME280;6763;48.524;9.044;2023-01-15T07:33:23;96635.13;;;12.07;57.89
13387;BME280;6763;48.524;9.044;2023-01-15T07:35:48;96642.16;;;12.05;57.72
13387;BME280;6763;48.524;9.044;2023-01-15T07:38:14;96642.41;;;11.99;57.25
13387;BME280;6763;48.524;9.044;2023-01-15T07:40:39;96655.56;;;11.95;57.61
13387;BME280;6763;48.524;9.044;2023-01-15T07:43:04;96666.19;;;11.89;57.67
13387;BME280;6763;48.524;9.044;2023-01-15T07:45:48;96668.13;;;11.83;57.96
13387;BME280;6763;48.524;9.044;2023-01-15T07:48:32;96676.88;;;11.81;57.85
13387;BME280;6763;48.524;9.044;2023-01-15T07:51:16;96696.06;;;11.77;57.59
13387;BME280;6763;48.524;9.044;2023-01-15T07:53:41;96684.94;;;11.75;57.23
13387;BME280;6763;48.524;9.044;2023-01-15T07:56:07;96698.81;;;11.72;57.69
13387;BME280;6763;48.524;9.044;2023-01-15T07:58:33;96711.84;;;11.71;57.33
13387;BME280;6763;48.524;9.044;2023-01-15T08:00:58;96724.88;;;11.69;57.52
13387;BME280;6763;48.524;9.044;2023-01-15T08:03:23;96721.44;;;11.69;57.19
13387;BME280;6763;48.524;9.044;2023-01-15T08:05:49;96725.81;;;11.67;57.13
13387;BME280;6763;48.524;9.044;2023-01-15T08:08:15;96720.88;;;11.61;56.52
13387;BME280;6763;48.524;9.044;2023-01-15T08:10:41;96732.31;;;11.55;56.53
13387;BME280;6763;48.524;9.044;2023-01-15T08:13:25;96746.31;;;11.51;56.88
13387;BME280;6763;48.524;9.044;2023-01-15T08:16:09;96745.50;;;11.49;56.22
13387;BME280;6763;48.524;9.044;2023-01-15T08:18:35;96748.06;;;11.51;56.60
13387;BME280;6763;48.524;9.044;2023-01-15T08:21:01;96756.72;;;11.50;56.33
13387;BME280;6763;48.524;9.044;2023-01-15T08:23:26;96756.00;;;11.46;55.87
13387;BME280;6763;48.524;9.044;2023-01-15T08:25:51;96768.16;;;11.44;55.61
13387;BME280;6763;48.524;9.044;2023-01-15T08:28:17;96770.81;;;11.43;55.58
13387;BME280;6763;48.524;9.044;2023-01-15T08:30:42;96783.00;;;11.41;55.74
13387;BME280;6763;48.524;9.044;2023-01-15T08:33:07;96784.66;;;11.42;56.14
13387;BME280;6763;48.524;9.044;2023-01-15T08:35:33;96787.09;;;11.46;56.11
13387;BME280;6763;48.524;9.044;2023-01-15T08:38:03;96800.75;;;11.50;56.26
13387;BME280;6763;48.524;9.044;2023-01-15T08:40:28;96799.09;;;11.49;56.01
13387;BME280;6763;48.524;9.044;2023-01-15T08:42:53;96810.41;;;11.46;56.29
13387;BME280;6763;48.524;9.044;2023-01-15T08:45:19;96802.69;;;11.45;55.65
13387;BME280;6763;48.524;9.044;2023-01-15T08:47:44;96813.06;;;11.45;55.83
13387;BME280;6763;48.524;9.044;2023-01-15T08:50:10;96815.66;;;11.45;55.45
13387;BME280;6763;48.524;9.044;2023-01-15T08:52:36;96819.09;;;11.45;55.59
13387;BME280;6763;48.524;9.044;2023-01-15T08:55:02;96828.56;;;11.46;55.96
13387;BME280;6763;48.524;9.044;2023-01-15T08:57:28;96832.94;;;11.44;55.55
13387;BME280;6763;48.524;9.044;2023-01-15T08:59:53;96848.63;;;11.41;55.78
13387;BME280;6763;48.524;9.044;2023-01-15T09:02:18;96845.94;;;11.43;55.62
13387;BME280;6763;48.524;9.044;2023-01-15T09:04:44;96853.72;;;11.43;56.24
13387;BME280;6763;48.524;9.044;2023-01-15T09:07:09;96840.00;;;11.41;56.22
13387;BME280;6763;48.524;9.044;2023-01-15T09:09:35;96843.34;;;11.43;56.10
13387;BME280;6763;48.524;9.044;2023-01-15T09:12:00;96845.72;;;11.49;56.32
13387;BME280;6763;48.524;9.044;2023-01-15T09:14:26;96852.41;;;11.54;56.07
13387;BME280;6763;48.524;9.044;2023-01-15T09:16:51;96848.03;;;11.56;56.20
13387;BME280;6763;48.524;9.044;2023-01-15T09:19:17;96851.31;;;11.61;56.21
13387;BME280;6763;48.524;9.044;2023-01-15T09:21:42;96858.81;;;11.69;56.58
13387;BME280;6763;48.524;9.044;2023-01-15T09:24:08;96871.41;;;11.78;56.50
13387;BME280;6763;48.524;9.044;2023-01-15T09:26:36;96870.31;;;11.85;56.11
13387;BME280;6763;48.524;9.044;2023-01-15T09:29:04;96881.38;;;11.89;56.25
13387;BME280;6763;48.524;9.044;2023-01-15T09:31:30;96883.25;;;11.85;55.67
13387;BME280;6763;48.524;9.044;2023-01-15T09:33:55;96885.97;;;11.82;55.86
13387;BME280;6763;48.524;9.044;2023-01-15T09:36:30;96887.03;;;11.76;54.92
13387;BME280;6763;48.524;9.044;2023-01-15T09:38:57;96897.69;;;11.69;55.50
13387;BME280;6763;48.524;9.044;2023-01-15T09:41:23;96896.13;;;11.63;54.86
13387;BME280;6763;48.524;9.044;2023-01-15T09:52:27;96912.25;;;11.23;54.70
13387;BME280;6763;48.524;9.044;2023-01-15T09:55:11;96926.44;;;11.13;54.62
13387;BME280;6763;48.524;9.044;2023-01-15T09:57:37;96924.19;;;11.04;54.32
13387;BME280;6763;48.524;9.044;2023-01-15T10:00:05;96914.88;;;10.99;53.91
13387;BME280;6763;48.524;9.044;2023-01-15T10:02:44;96901.25;;;10.94;53.89
13387;BME280;6763;48.524;9.044;2023-01-15T10:05:32;96927.13;;;10.94;54.70
13387;BME280;6763;48.524;9.044;2023-01-15T10:10:31;96902.66;;;11.02;54.97
13387;BME280;6763;48.524;9.044;2023-01-15T10:13:16;96916.72;;;10.95;54.58
13387;BME280;6763;48.524;9.044;2023-01-15T10:15:45;96926.81;;;11.03;55.28
13387;BME280;6763;48.524;9.044;2023-01-15T10:18:17;96929.38;;;11.03;54.76
13387;BME280;6763;48.524;9.044;2023-01-15T10:23:50;96954.34;;;10.79;53.90
13387;BME280;6763;48.524;9.044;2023-01-15T10:29:02;96969.31;;;10.71;53.76
13387;BME280;6763;48.524;9.044;2023-01-15T10:31:52;96961.41;;;10.74;54.05
13387;BME280;6763;48.524;9.044;2023-01-15T10:34:57;96971.91;;;10.71;54.34
13387;BME280;6763;48.524;9.044;2023-01-15T10:43:19;96965.66;;;10.77;54.88
13387;BME280;6763;48.524;9.044;2023-01-15T10:45:51;96962.59;;;10.66;54.55
13387;BME280;6763;48.524;9.044;2023-01-15T10:48:50;96964.50;;;10.59;54.21
13387;BME280;6763;48.524;9.044;2023-01-15T10:51:19;96970.00;;;10.48;54.56
13387;BME280;6763;48.524;9.044;2023-01-15T10:53:46;96951.03;;;10.49;54.86
13387;BME280;6763;48.524;9.044;2023-01-15T10:59:14;96978.16;;;10.36;54.66
13387;BME280;6763;48.524;9.044;2023-01-15T11:01:40;96989.50;;;10.32;54.25
13387;BME280;6763;48.524;9.044;2023-01-15T11:04:10;96982.66;;;10.30;54.48
13387;BME280;6763;48.524;9.044;2023-01-15T11:06:37;96975.59;;;10.36;54.85
13387;BME280;6763;48.524;9.044;2023-01-15T11:09:03;96979.91;;;10.36;54.20
13387;BME280;6763;48.524;9.044;2023-01-15T11:11:37;96993.78;;;10.33;54.17
13387;BME280;6763;48.524;9.044;2023-01-15T11:14:41;96990.31;;;10.34;54.09
13387;BME280;6763;48.524;9.044;2023-01-15T11:17:36;96998.06;;;10.34;53.93
13387;BME280;6763;48.524;9.044;2023-01-15T11:20:32;97008.53;;;10.30;53.95
13387;BME280;6763;48.524;9.044;2023-01-15T11:23:10;97006.63;;;10.36;54.43
13387;BME280;6763;48.524;9.044;2023-01-15T11:25:37;97013.19;;;10.46;54.38
13387;BME280;6763;48.524;9.044;2023-01-15T11:28:08;97020.81;;;10.51;54.38
13387;BME280;6763;48.524;9.044;2023-01-15T11:30:37;97026.06;;;10.49;54.16
13387;BME280;6763;48.524;9.044;2023-01-15T11:33:04;97017.44;;;10.49;53.63
13387;BME280;6763;48.524;9.044;2023-01-15T11:35:30;97033.97;;;10.45;53.72
13387;BME280;6763;48.524;9.044;2023-01-15T11:38:11;97031.38;;;10.45;53.21
13387;BME280;6763;48.524;9.044;2023-01-15T11:40:37;97038.97;;;10.49;53.75
13387;BME280;6763;48.524;9.044;2023-01-15T11:43:03;97032.88;;;10.52;53.44
13387;BME280;6763;48.524;9.044;2023-01-15T11:45:51;97043.28;;;10.50;53.85
13387;BME280;6763;48.524;9.044;2023-01-15T11:48:46;97061.56;;;10.44;54.19
13387;BME280;6763;48.524;9.044;2023-01-15T11:51:40;97064.47;;;10.34;54.16
13387;BME280;6763;48.524;9.044;2023-01-15T11:54:10;97075.06;;;10.25;54.80
13387;BME280;6763;48.524;9.044;2023-01-15T11:56:41;97079.50;;;10.21;54.99
13387;BME280;6763;48.524;9.044;2023-01-15T11:59:16;97078.69;;;10.19;54.81
13387;BME280;6763;48.524;9.044;2023-01-15T12:04:48;97098.09;;;10.02;54.37
13387;BME280;6763;48.524;9.044;2023-01-15T12:07:18;97104.19;;;9.99;54.51
13387;BME280;6763;48.524;9.044;2023-01-15T12:12:22;97104.81;;;9.76;54.42
13387;BME280;6763;48.524;9.044;2023-01-15T12:15:03;97103.50;;;9.62;53.25
13387;BME280;6763;48.524;9.044;2023-01-15T12:20:32;97114.34;;;9.41;52.23
13387;BME280;6763;48.524;9.044;2023-01-15T12:26:07;97110.13;;;9.36;53.59
13387;BME280;6763;48.524;9.044;2023-01-15T12:28:51;97116.22;;;9.34;53.14
13387;BME280;6763;48.524;9.044;2023-01-15T12:31:42;97125.81;;;9.30;53.66
13387;BME280;6763;48.524;9.044;2023-01-15T12:34:23;97134.09;;;9.43;53.37
13387;BME280;6763;48.524;9.044;2023-01-15T12:36:53;97134.09;;;9.43;53.53
13387;BME280;6763;48.524;9.044;2023-01-15T12:39:57;97125.22;;;9.53;53.23
13387;BME280;6763;48.524;9.044;2023-01-15T12:42:29;97123.09;;;9.69;52.86
13387;BME280;6763;48.524;9.044;2023-01-15T12:45:27;97123.72;;;9.78;52.71
13387;BME280;6763;48.524;9.044;2023-01-15T12:48:20;97125.50;;;9.76;52.22
13387;BME280;6763;48.524;9.044;2023-01-15T12:50:53;97118.38;;;9.84;51.91
13387;BME280;6763;48.524;9.044;2023-01-15T12:53:45;97117.88;;;9.70;51.58
13387;BME280;6763;48.524;9.044;2023-01-15T12:56:21;97123.06;;;9.70;52.10
13387;BME280;6763;48.524;9.044;2023-01-15T13:01:55;97125.63;;;9.72;51.60
13387;BME280;6763;48.524;9.044;2023-01-15T13:04:29;97123.63;;;9.81;51.36
13387;BME280;6763;48.524;9.044;2023-01-15T13:07:04;97128.66;;;9.86;51.29
13387;BME280;6763;48.524;9.044;2023-01-15T13:12:01;97136.28;;;9.92;51.24
13387;BME280;6763;48.524;9.044;2023-01-15T13:14:26;97124.88;;;9.99;51.24
13387;BME280;6763;48.524;9.044;2023-01-15T13:17:00;97127.53;;;9.96;50.99
13387;BME280;6763;48.524;9.044;2023-01-15T13:22:33;97143.81;;;10.01;51.28
13387;BME280;6763;48.524;9.044;2023-01-15T13:33:31;97148.84;;;10.06;50.99
13387;BME280;6763;48.524;9.044;2023-01-15T13:38:39;97153.28;;;10.01;50.32
13387;BME280;6763;48.524;9.044;2023-01-15T13:41:07;97173.66;;;10.13;50.67
13387;BME280;6763;48.524;9.044;2023-01-15T13:43:39;97157.22;;;10.15;50.34
13387;BME280;6763;48.524;9.044;2023-01-15T13:46:10;97166.25;;;10.31;50.00
13387;BME280;6763;48.524;9.044;2023-01-15T13:48:43;97170.56;;;10.32;49.80
13387;BME280;6763;48.524;9.044;2023-01-15T13:51:29;97181.72;;;10.33;48.95
13387;BME280;6763;48.524;9.044;2023-01-15T13:53:59;97189.06;;;10.48;49.12
13387;BME280;6763;48.524;9.044;2023-01-15T13:56:28;97180.47;;;10.47;48.33
13387;BME280;6763;48.524;9.044;2023-01-15T13:58:59;97182.22;;;10.47;47.78
13387;BME280;6763;48.524;9.044;2023-01-15T14:01:30;97182.72;;;10.59;48.34
13387;BME280;6763;48.524;9.044;2023-01-15T14:04:15;97179.97;;;10.66;47.23
13387;BME280;6763;48.524;9.044;2023-01-15T14:20:20;97169.50;;;12.77;43.38
13387;BME280;6763;48.524;9.044;2023-01-15T14:23:11;97169.72;;;12.94;41.77
13387;BME280;6763;48.524;9.044;2023-01-15T14:28:37;97170.78;;;13.33;41.57
13387;BME280;6763;48.524;9.044;2023-01-15T14:31:10;97174.09;;;13.38;40.76
13387;BME280;6763;48.524;9.044;2023-01-15T14:36:44;97176.31;;;13.89;39.33
13387;BME280;6763;48.524;9.044;2023-01-15T14:39:26;97176.13;;;13.94;39.17
13387;BME280;6763;48.524;9.044;2023-01-15T14:42:01;97176.41;;;14.08;38.33
13387;BME280;6763;48.524;9.044;2023-01-15T14:44:55;97170.94;;;13.94;39.03
13387;BME280;6763;48.524;9.044;2023-01-15T14:47:29;97180.34;;;13.76;38.73
13387;BME280;6763;48.524;9.044;2023-01-15T14:52:46;97175.72;;;13.41;39.22
13387;BME280;6763;48.524;9.044;2023-01-15T14:55:12;97166.63;;;13.29;38.96
13387;BME280;6763;48.524;9.044;2023-01-15T14:57:41;97178.00;;;13.27;39.12
13387;BME280;6763;48.524;9.044;2023-01-15T15:00:14;97177.50;;;13.39;38.88
13387;BME280;6763;48.524;9.044;2023-01-15T15:02:43;97181.69;;;13.43;39.05
13387;BME280;6763;48.524;9.044;2023-01-15T15:05:15;97182.66;;;13.40;38.23
13387;BME280;6763;48.524;9.044;2023-01-15T15:07:46;97169.66;;;13.40;37.90